Terminal Aerodrome Forecast
Issued by NWS

Current Version | Previous Version | Text Only | Print | Product List | Glossary On
Versions: 1 2 3 4 5 6 7 8 9 10 11 12 13 14 15
376
FTUS46 KSEW 230526
TAFCLM
TAF
KCLM 230526Z 2306/2406 29007KT P6SM SCT006 OVC017
      TEMPO 2306/2310 4SM BR BKN006 OVC017
     FM231000 27008KT 3SM BR OVC006
     FM232000 32010KT P6SM SCT008 OVC017
     FM232200 34007KT P6SM SCT025=

USA.gov is the U.S. government's official web portal to all federal, state and local government web resources and services.